sensor_id;sensor_type;location;lat;lon;timestamp;temperature;humidity
16635;DHT22;8431;52.458;9.998;2024-01-16T00:00:55;0.90;96.20
16635;DHT22;8431;52.458;9.998;2024-01-16T00:03:22;0.90;95.90
16635;DHT22;8431;52.458;9.998;2024-01-16T00:05:49;0.90;96.10
16635;DHT22;8431;52.458;9.998;2024-01-16T00:08:16;1.00;96.10
16635;DHT22;8431;52.458;9.998;2024-01-16T00:10:42;0.90;96.00
16635;DHT22;8431;52.458;9.998;2024-01-16T00:13:11;0.80;96.60
16635;DHT22;8431;52.458;9.998;2024-01-16T00:15:38;0.80;97.60
16635;DHT22;8431;52.458;9.998;2024-01-16T00:18:07;0.70;97.60
16635;DHT22;8431;52.458;9.998;2024-01-16T00:20:34;0.70;97.70
16635;DHT22;8431;52.458;9.998;2024-01-16T00:23:01;0.70;97.70
16635;DHT22;8431;52.458;9.998;2024-01-16T00:25:27;0.70;97.60
16635;DHT22;8431;52.458;9.998;2024-01-16T00:27:54;0.70;97.60
16635;DHT22;8431;52.458;9.998;2024-01-16T00:30:22;0.70;97.50
16635;DHT22;8431;52.458;9.998;2024-01-16T00:32:49;0.70;97.40
16635;DHT22;8431;52.458;9.998;2024-01-16T00:35:16;0.60;97.30
16635;DHT22;8431;52.458;9.998;2024-01-16T00:37:43;0.70;97.00
16635;DHT22;8431;52.458;9.998;2024-01-16T00:40:10;0.70;96.80
16635;DHT22;8431;52.458;9.998;2024-01-16T00:42:37;0.70;96.60
16635;DHT22;8431;52.458;9.998;2024-01-16T00:45:05;0.70;96.50
16635;DHT22;8431;52.458;9.998;2024-01-16T00:47:33;0.80;96.40
16635;DHT22;8431;52.458;9.998;2024-01-16T00:50:00;0.70;96.40
16635;DHT22;8431;52.458;9.998;2024-01-16T00:52:27;0.80;96.30
16635;DHT22;8431;52.458;9.998;2024-01-16T00:54:54;0.80;96.20
16635;DHT22;8431;52.458;9.998;2024-01-16T00:57:21;0.80;96.00
16635;DHT22;8431;52.458;9.998;2024-01-16T00:59:48;0.80;96.10
16635;DHT22;8431;52.458;9.998;2024-01-16T01:02:15;0.80;96.30
16635;DHT22;8431;52.458;9.998;2024-01-16T01:04:43;0.70;95.80
16635;DHT22;8431;52.458;9.998;2024-01-16T01:07:12;0.80;95.70
16635;DHT22;8431;52.458;9.998;2024-01-16T01:09:39;0.80;95.70
16635;DHT22;8431;52.458;9.998;2024-01-16T01:12:06;0.70;95.60
16635;DHT22;8431;52.458;9.998;2024-01-16T01:14:33;0.80;95.10
16635;DHT22;8431;52.458;9.998;2024-01-16T01:17:00;0.70;95.10
16635;DHT22;8431;52.458;9.998;2024-01-16T01:19:27;0.70;95.00
16635;DHT22;8431;52.458;9.998;2024-01-16T01:21:56;0.80;94.90
16635;DHT22;8431;52.458;9.998;2024-01-16T01:24:22;0.70;95.20
16635;DHT22;8431;52.458;9.998;2024-01-16T01:26:49;0.70;95.20
16635;DHT22;8431;52.458;9.998;2024-01-16T01:29:16;0.70;95.10
16635;DHT22;8431;52.458;9.998;2024-01-16T01:31:45;0.60;94.70
16635;DHT22;8431;52.458;9.998;2024-01-16T01:34:13;0.70;94.70
16635;DHT22;8431;52.458;9.998;2024-01-16T01:36:40;0.70;94.60
16635;DHT22;8431;52.458;9.998;2024-01-16T01:39:08;0.60;94.50
16635;DHT22;8431;52.458;9.998;2024-01-16T01:41:35;0.70;94.60
16635;DHT22;8431;52.458;9.998;2024-01-16T01:44:01;0.70;94.40
16635;DHT22;8431;52.458;9.998;2024-01-16T01:46:29;0.60;94.70
16635;DHT22;8431;52.458;9.998;2024-01-16T01:48:58;0.60;94.70
16635;DHT22;8431;52.458;9.998;2024-01-16T01:51:25;0.60;94.80
16635;DHT22;8431;52.458;9.998;2024-01-16T01:53:53;0.50;94.80
16635;DHT22;8431;52.458;9.998;2024-01-16T01:56:21;0.50;95.20
16635;DHT22;8431;52.458;9.998;2024-01-16T01:58:54;0.30;95.30
16635;DHT22;8431;52.458;9.998;2024-01-16T02:01:23;0.40;95.50
16635;DHT22;8431;52.458;9.998;2024-01-16T02:03:51;0.40;95.40
16635;DHT22;8431;52.458;9.998;2024-01-16T02:06:19;0.40;95.60
16635;DHT22;8431;52.458;9.998;2024-01-16T02:08:45;0.40;95.80
16635;DHT22;8431;52.458;9.998;2024-01-16T02:11:12;0.40;95.60
16635;DHT22;8431;52.458;9.998;2024-01-16T02:13:40;0.30;95.80
16635;DHT22;8431;52.458;9.998;2024-01-16T02:16:17;0.40;95.70
16635;DHT22;8431;52.458;9.998;2024-01-16T02:18:45;0.30;95.80
16635;DHT22;8431;52.458;9.998;2024-01-16T02:21:14;0.30;95.80
16635;DHT22;8431;52.458;9.998;2024-01-16T02:23:43;0.20;96.20
16635;DHT22;8431;52.458;9.998;2024-01-16T02:26:10;0.20;96.00
16635;DHT22;8431;52.458;9.998;2024-01-16T02:28:37;0.30;95.50
16635;DHT22;8431;52.458;9.998;2024-01-16T02:31:04;0.30;95.40
16635;DHT22;8431;52.458;9.998;2024-01-16T02:33:31;0.40;95.40
16635;DHT22;8431;52.458;9.998;2024-01-16T02:35:58;0.40;95.20
16635;DHT22;8431;52.458;9.998;2024-01-16T02:38:25;0.40;95.10
16635;DHT22;8431;52.458;9.998;2024-01-16T02:40:53;0.40;95.10
16635;DHT22;8431;52.458;9.998;2024-01-16T02:43:20;0.40;95.20
16635;DHT22;8431;52.458;9.998;2024-01-16T02:45:46;0.50;95.20
16635;DHT22;8431;52.458;9.998;2024-01-16T02:48:13;0.40;95.00
16635;DHT22;8431;52.458;9.998;2024-01-16T02:50:41;0.40;95.30
16635;DHT22;8431;52.458;9.998;2024-01-16T02:53:08;0.40;95.70
16635;DHT22;8431;52.458;9.998;2024-01-16T02:55:34;0.40;95.40
16635;DHT22;8431;52.458;9.998;2024-01-16T02:58:03;0.30;95.50
16635;DHT22;8431;52.458;9.998;2024-01-16T03:00:30;0.30;95.30
16635;DHT22;8431;52.458;9.998;2024-01-16T03:02:57;0.30;95.30
16635;DHT22;8431;52.458;9.998;2024-01-16T03:05:24;0.40;95.40
16635;DHT22;8431;52.458;9.998;2024-01-16T03:07:50;0.30;95.20
16635;DHT22;8431;52.458;9.998;2024-01-16T03:10:17;0.30;95.00
16635;DHT22;8431;52.458;9.998;2024-01-16T03:12:44;0.20;94.90
16635;DHT22;8431;52.458;9.998;2024-01-16T03:15:12;0.30;95.00
16635;DHT22;8431;52.458;9.998;2024-01-16T03:17:39;0.20;95.00
16635;DHT22;8431;52.458;9.998;2024-01-16T03:20:07;0.30;95.20
16635;DHT22;8431;52.458;9.998;2024-01-16T03:22:34;0.30;95.40
16635;DHT22;8431;52.458;9.998;2024-01-16T03:25:01;0.30;95.10
16635;DHT22;8431;52.458;9.998;2024-01-16T03:27:28;0.30;94.90
16635;DHT22;8431;52.458;9.998;2024-01-16T03:29:54;0.20;95.10
16635;DHT22;8431;52.458;9.998;2024-01-16T03:32:23;0.10;95.10
16635;DHT22;8431;52.458;9.998;2024-01-16T03:34:49;0.10;95.10
16635;DHT22;8431;52.458;9.998;2024-01-16T03:37:16;0.10;95.40
16635;DHT22;8431;52.458;9.998;2024-01-16T03:39:43;0.00;95.40
16635;DHT22;8431;52.458;9.998;2024-01-16T03:42:10;0.10;95.20
16635;DHT22;8431;52.458;9.998;2024-01-16T03:44:38;-0.10;95.30
16635;DHT22;8431;52.458;9.998;2024-01-16T03:47:05;-0.20;95.60
16635;DHT22;8431;52.458;9.998;2024-01-16T03:49:34;-0.10;95.70
16635;DHT22;8431;52.458;9.998;2024-01-16T03:52:00;-0.10;95.80
16635;DHT22;8431;52.458;9.998;2024-01-16T03:54:27;-0.10;95.70
16635;DHT22;8431;52.458;9.998;2024-01-16T03:56:54;-0.10;95.70
16635;DHT22;8431;52.458;9.998;2024-01-16T03:59:21;0.00;95.70
16635;DHT22;8431;52.458;9.998;2024-01-16T04:01:48;0.00;95.70
16635;DHT22;8431;52.458;9.998;2024-01-16T04:04:15;0.00;95.60
16635;DHT22;8431;52.458;9.998;2024-01-16T04:06:44;0.00;95.50
16635;DHT22;8431;52.458;9.998;2024-01-16T04:09:10;0.00;95.60
16635;DHT22;8431;52.458;9.998;2024-01-16T04:11:39;-0.10;95.70
16635;DHT22;8431;52.458;9.998;2024-01-16T04:14:05;-0.10;95.80
16635;DHT22;8431;52.458;9.998;2024-01-16T04:16:33;0.00;95.70
16635;DHT22;8431;52.458;9.998;2024-01-16T04:18:59;0.00;95.60
16635;DHT22;8431;52.458;9.998;2024-01-16T04:21:26;0.10;95.70
16635;DHT22;8431;52.458;9.998;2024-01-16T04:23:54;0.00;95.60
16635;DHT22;8431;52.458;9.998;2024-01-16T04:26:21;0.00;95.70
16635;DHT22;8431;52.458;9.998;2024-01-16T04:28:49;0.00;95.60
16635;DHT22;8431;52.458;9.998;2024-01-16T04:31:15;0.00;95.50
16635;DHT22;8431;52.458;9.998;2024-01-16T04:33:43;0.00;95.40
16635;DHT22;8431;52.458;9.998;2024-01-16T04:36:09;0.10;95.70
16635;DHT22;8431;52.458;9.998;2024-01-16T04:38:36;0.20;95.50
16635;DHT22;8431;52.458;9.998;2024-01-16T04:41:04;0.10;95.10
16635;DHT22;8431;52.458;9.998;2024-01-16T04:43:31;0.00;95.30
16635;DHT22;8431;52.458;9.998;2024-01-16T04:45:58;-0.10;95.20
16635;DHT22;8431;52.458;9.998;2024-01-16T04:48:25;-0.10;95.40
16635;DHT22;8431;52.458;9.998;2024-01-16T04:50:51;0.00;95.20
16635;DHT22;8431;52.458;9.998;2024-01-16T04:53:18;0.00;95.30
16635;DHT22;8431;52.458;9.998;2024-01-16T04:55:48;-0.10;95.20
16635;DHT22;8431;52.458;9.998;2024-01-16T04:58:16;-0.10;95.30
16635;DHT22;8431;52.458;9.998;2024-01-16T05:00:44;-0.20;95.40
16635;DHT22;8431;52.458;9.998;2024-01-16T05:03:11;-0.20;95.00
16635;DHT22;8431;52.458;9.998;2024-01-16T05:05:39;-0.30;95.00
16635;DHT22;8431;52.458;9.998;2024-01-16T05:08:06;-0.30;95.20
16635;DHT22;8431;52.458;9.998;2024-01-16T05:10:32;-0.40;95.20
16635;DHT22;8431;52.458;9.998;2024-01-16T05:12:59;-0.40;95.40
16635;DHT22;8431;52.458;9.998;2024-01-16T05:15:27;-0.40;95.40
16635;DHT22;8431;52.458;9.998;2024-01-16T05:17:54;-0.40;95.50
16635;DHT22;8431;52.458;9.998;2024-01-16T05:20:21;-0.40;95.70
16635;DHT22;8431;52.458;9.998;2024-01-16T05:22:48;-0.40;95.60
16635;DHT22;8431;52.458;9.998;2024-01-16T05:25:15;-0.40;95.60
16635;DHT22;8431;52.458;9.998;2024-01-16T05:27:43;-0.50;95.80
16635;DHT22;8431;52.458;9.998;2024-01-16T05:30:10;-0.50;95.80
16635;DHT22;8431;52.458;9.998;2024-01-16T05:32:39;-0.50;95.90
16635;DHT22;8431;52.458;9.998;2024-01-16T05:35:07;-0.50;95.80
16635;DHT22;8431;52.458;9.998;2024-01-16T05:37:35;-0.50;96.00
16635;DHT22;8431;52.458;9.998;2024-01-16T05:40:02;-0.40;96.10
16635;DHT22;8431;52.458;9.998;2024-01-16T05:42:29;-0.40;95.90
16635;DHT22;8431;52.458;9.998;2024-01-16T05:44:56;-0.50;95.90
16635;DHT22;8431;52.458;9.998;2024-01-16T05:47:23;-0.40;95.80
16635;DHT22;8431;52.458;9.998;2024-01-16T05:49:54;-0.40;95.80
16635;DHT22;8431;52.458;9.998;2024-01-16T05:52:21;-0.40;95.80
16635;DHT22;8431;52.458;9.998;2024-01-16T05:54:48;-0.40;95.80
16635;DHT22;8431;52.458;9.998;2024-01-16T05:57:15;-0.50;96.10
16635;DHT22;8431;52.458;9.998;2024-01-16T05:59:42;-0.50;96.10
16635;DHT22;8431;52.458;9.998;2024-01-16T06:02:08;-0.60;96.30
16635;DHT22;8431;52.458;9.998;2024-01-16T06:04:36;-0.70;96.40
16635;DHT22;8431;52.458;9.998;2024-01-16T06:07:04;-0.70;96.50
16635;DHT22;8431;52.458;9.998;2024-01-16T06:09:32;-0.70;96.40
16635;DHT22;8431;52.458;9.998;2024-01-16T06:12:02;-0.70;96.50
16635;DHT22;8431;52.458;9.998;2024-01-16T06:14:29;-0.70;96.60
16635;DHT22;8431;52.458;9.998;2024-01-16T06:16:56;-0.60;96.60
16635;DHT22;8431;52.458;9.998;2024-01-16T06:19:22;-0.60;96.50
16635;DHT22;8431;52.458;9.998;2024-01-16T06:21:49;-0.60;96.50
16635;DHT22;8431;52.458;9.998;2024-01-16T06:24:17;-0.60;96.50
16635;DHT22;8431;52.458;9.998;2024-01-16T06:26:44;-0.60;96.60
16635;DHT22;8431;52.458;9.998;2024-01-16T06:29:11;-0.60;96.80
16635;DHT22;8431;52.458;9.998;2024-01-16T06:31:38;-0.60;96.60
16635;DHT22;8431;52.458;9.998;2024-01-16T06:34:05;-0.60;96.50
16635;DHT22;8431;52.458;9.998;2024-01-16T06:36:32;-0.60;96.60
16635;DHT22;8431;52.458;9.998;2024-01-16T06:38:59;-0.60;96.60
16635;DHT22;8431;52.458;9.998;2024-01-16T06:41:27;-0.60;96.60
16635;DHT22;8431;52.458;9.998;2024-01-16T06:43:54;-0.50;96.20
16635;DHT22;8431;52.458;9.998;2024-01-16T06:46:21;-0.50;96.20
16635;DHT22;8431;52.458;9.998;2024-01-16T06:48:47;-0.50;96.30
16635;DHT22;8431;52.458;9.998;2024-01-16T06:51:15;-0.40;96.40
16635;DHT22;8431;52.458;9.998;2024-01-16T06:53:41;-0.40;96.20
16635;DHT22;8431;52.458;9.998;2024-01-16T06:56:08;-0.30;96.30
16635;DHT22;8431;52.458;9.998;2024-01-16T06:58:37;-0.30;96.20
16635;DHT22;8431;52.458;9.998;2024-01-16T07:01:04;-0.30;96.10
16635;DHT22;8431;52.458;9.998;2024-01-16T07:03:31;-0.20;96.00
16635;DHT22;8431;52.458;9.998;2024-01-16T07:05:57;-0.20;96.00
16635;DHT22;8431;52.458;9.998;2024-01-16T07:08:24;-0.20;96.00
16635;DHT22;8431;52.458;9.998;2024-01-16T07:10:51;-0.20;96.10
16635;DHT22;8431;52.458;9.998;2024-01-16T07:13:19;-0.20;96.00
16635;DHT22;8431;52.458;9.998;2024-01-16T07:15:47;-0.10;95.90
16635;DHT22;8431;52.458;9.998;2024-01-16T07:18:14;-0.10;95.80
16635;DHT22;8431;52.458;9.998;2024-01-16T07:20:41;-0.10;95.70
16635;DHT22;8431;52.458;9.998;2024-01-16T07:23:08;0.00;95.70
16635;DHT22;8431;52.458;9.998;2024-01-16T07:25:34;-0.10;95.70
16635;DHT22;8431;52.458;9.998;2024-01-16T07:28:04;0.00;95.60
16635;DHT22;8431;52.458;9.998;2024-01-16T07:30:30;0.00;95.50
16635;DHT22;8431;52.458;9.998;2024-01-16T07:32:58;0.10;95.30
16635;DHT22;8431;52.458;9.998;2024-01-16T07:35:25;0.10;95.30
16635;DHT22;8431;52.458;9.998;2024-01-16T07:37:52;0.10;95.40
16635;DHT22;8431;52.458;9.998;2024-01-16T07:40:19;0.10;95.20
16635;DHT22;8431;52.458;9.998;2024-01-16T07:42:46;0.10;95.40
16635;DHT22;8431;52.458;9.998;2024-01-16T07:45:13;0.10;95.40
16635;DHT22;8431;52.458;9.998;2024-01-16T07:47:39;0.00;95.50
16635;DHT22;8431;52.458;9.998;2024-01-16T07:50:09;0.00;95.40
16635;DHT22;8431;52.458;9.998;2024-01-16T07:52:36;0.00;95.60
16635;DHT22;8431;52.458;9.998;2024-01-16T07:55:03;0.00;95.60
16635;DHT22;8431;52.458;9.998;2024-01-16T07:57:30;0.00;95.60
16635;DHT22;8431;52.458;9.998;2024-01-16T07:59:57;0.00;95.50
16635;DHT22;8431;52.458;9.998;2024-01-16T08:02:30;0.00;95.50
16635;DHT22;8431;52.458;9.998;2024-01-16T08:04:58;0.00;95.40
16635;DHT22;8431;52.458;9.998;2024-01-16T08:07:26;0.00;95.30
16635;DHT22;8431;52.458;9.998;2024-01-16T08:09:54;0.00;95.20
16635;DHT22;8431;52.458;9.998;2024-01-16T08:12:21;0.10;95.30
16635;DHT22;8431;52.458;9.998;2024-01-16T08:14:48;0.00;95.40
16635;DHT22;8431;52.458;9.998;2024-01-16T08:17:15;0.00;95.40
16635;DHT22;8431;52.458;9.998;2024-01-16T08:19:42;0.00;95.40
16635;DHT22;8431;52.458;9.998;2024-01-16T08:22:09;0.00;95.30
16635;DHT22;8431;52.458;9.998;2024-01-16T08:24:37;0.00;95.50
16635;DHT22;8431;52.458;9.998;2024-01-16T08:27:04;0.10;95.30
16635;DHT22;8431;52.458;9.998;2024-01-16T08:29:31;0.10;95.10
16635;DHT22;8431;52.458;9.998;2024-01-16T08:31:58;0.00;95.20
16635;DHT22;8431;52.458;9.998;2024-01-16T08:34:25;0.00;95.10
16635;DHT22;8431;52.458;9.998;2024-01-16T08:36:52;0.20;94.90
16635;DHT22;8431;52.458;9.998;2024-01-16T08:39:22;0.20;95.00
16635;DHT22;8431;52.458;9.998;2024-01-16T08:41:51;0.30;94.80
16635;DHT22;8431;52.458;9.998;2024-01-16T08:44:17;0.30;94.70
16635;DHT22;8431;52.458;9.998;2024-01-16T08:46:44;0.40;94.60
16635;DHT22;8431;52.458;9.998;2024-01-16T08:49:11;0.40;94.40
16635;DHT22;8431;52.458;9.998;2024-01-16T08:51:39;0.30;94.30
16635;DHT22;8431;52.458;9.998;2024-01-16T08:54:06;0.40;94.30
16635;DHT22;8431;52.458;9.998;2024-01-16T08:56:33;0.40;94.20
16635;DHT22;8431;52.458;9.998;2024-01-16T08:59:01;0.50;93.90
16635;DHT22;8431;52.458;9.998;2024-01-16T09:01:28;0.50;93.90
16635;DHT22;8431;52.458;9.998;2024-01-16T09:03:55;0.50;94.10
16635;DHT22;8431;52.458;9.998;2024-01-16T09:06:22;0.60;94.00
16635;DHT22;8431;52.458;9.998;2024-01-16T09:08:48;0.60;94.00
16635;DHT22;8431;52.458;9.998;2024-01-16T09:11:15;0.60;93.80
16635;DHT22;8431;52.458;9.998;2024-01-16T09:13:45;0.50;93.80
16635;DHT22;8431;52.458;9.998;2024-01-16T09:16:13;0.50;93.90
16635;DHT22;8431;52.458;9.998;2024-01-16T09:18:40;0.60;93.90
16635;DHT22;8431;52.458;9.998;2024-01-16T09:21:07;0.60;93.80
16635;DHT22;8431;52.458;9.998;2024-01-16T09:23:34;0.50;93.90
16635;DHT22;8431;52.458;9.998;2024-01-16T09:26:00;0.50;94.00
16635;DHT22;8431;52.458;9.998;2024-01-16T09:28:27;0.60;93.90
16635;DHT22;8431;52.458;9.998;2024-01-16T09:30:54;0.70;93.70
16635;DHT22;8431;52.458;9.998;2024-01-16T09:33:24;0.70;93.40
16635;DHT22;8431;52.458;9.998;2024-01-16T09:35:51;0.70;93.50
16635;DHT22;8431;52.458;9.998;2024-01-16T09:38:18;0.80;93.40
16635;DHT22;8431;52.458;9.998;2024-01-16T09:40:45;0.80;93.10
16635;DHT22;8431;52.458;9.998;2024-01-16T09:43:12;0.70;93.40
16635;DHT22;8431;52.458;9.998;2024-01-16T09:45:39;0.80;93.50
16635;DHT22;8431;52.458;9.998;2024-01-16T09:48:06;0.80;93.30
16635;DHT22;8431;52.458;9.998;2024-01-16T09:50:35;0.90;92.80
16635;DHT22;8431;52.458;9.998;2024-01-16T09:53:02;0.90;92.90
16635;DHT22;8431;52.458;9.998;2024-01-16T09:55:29;1.00;93.20
16635;DHT22;8431;52.458;9.998;2024-01-16T09:57:57;0.90;93.10
16635;DHT22;8431;52.458;9.998;2024-01-16T10:00:24;1.00;93.10
16635;DHT22;8431;52.458;9.998;2024-01-16T10:02:53;1.00;93.10
16635;DHT22;8431;52.458;9.998;2024-01-16T10:05:24;1.10;93.30
16635;DHT22;8431;52.458;9.998;2024-01-16T10:07:53;1.10;93.10
16635;DHT22;8431;52.458;9.998;2024-01-16T10:10:20;1.20;92.80
16635;DHT22;8431;52.458;9.998;2024-01-16T10:12:49;1.20;92.80
16635;DHT22;8431;52.458;9.998;2024-01-16T10:15:16;1.10;92.80
16635;DHT22;8431;52.458;9.998;2024-01-16T10:17:46;1.20;93.00
16635;DHT22;8431;52.458;9.998;2024-01-16T10:20:13;1.20;93.10
16635;DHT22;8431;52.458;9.998;2024-01-16T10:22:54;1.30;92.80
16635;DHT22;8431;52.458;9.998;2024-01-16T10:25:21;1.20;92.70
16635;DHT22;8431;52.458;9.998;2024-01-16T10:27:48;1.20;92.70
16635;DHT22;8431;52.458;9.998;2024-01-16T10:30:21;1.20;92.70
16635;DHT22;8431;52.458;9.998;2024-01-16T10:32:48;1.40;92.70
16635;DHT22;8431;52.458;9.998;2024-01-16T10:35:15;1.40;92.50
16635;DHT22;8431;52.458;9.998;2024-01-16T10:37:43;1.40;92.70
16635;DHT22;8431;52.458;9.998;2024-01-16T10:40:15;1.30;92.60
16635;DHT22;8431;52.458;9.998;2024-01-16T10:42:42;1.30;92.60
16635;DHT22;8431;52.458;9.998;2024-01-16T10:45:16;1.30;92.90
16635;DHT22;8431;52.458;9.998;2024-01-16T10:47:43;1.30;92.90
16635;DHT22;8431;52.458;9.998;2024-01-16T10:50:10;1.30;92.60
16635;DHT22;8431;52.458;9.998;2024-01-16T10:52:45;1.40;92.50
16635;DHT22;8431;52.458;9.998;2024-01-16T10:55:19;1.30;92.40
16635;DHT22;8431;52.458;9.998;2024-01-16T10:57:48;1.40;92.40
16635;DHT22;8431;52.458;9.998;2024-01-16T11:00:18;1.30;92.00
16635;DHT22;8431;52.458;9.998;2024-01-16T11:02:49;1.30;92.30
16635;DHT22;8431;52.458;9.998;2024-01-16T11:05:17;1.40;92.30
16635;DHT22;8431;52.458;9.998;2024-01-16T11:07:45;1.40;92.30
16635;DHT22;8431;52.458;9.998;2024-01-16T11:10:14;1.40;92.20
16635;DHT22;8431;52.458;9.998;2024-01-16T11:12:41;1.40;92.60
16635;DHT22;8431;52.458;9.998;2024-01-16T11:15:10;1.50;92.00
16635;DHT22;8431;52.458;9.998;2024-01-16T11:17:38;1.50;92.10
16635;DHT22;8431;52.458;9.998;2024-01-16T11:20:09;1.60;91.70
16635;DHT22;8431;52.458;9.998;2024-01-16T11:22:38;1.50;91.70
16635;DHT22;8431;52.458;9.998;2024-01-16T11:25:09;1.60;91.80
16635;DHT22;8431;52.458;9.998;2024-01-16T11:27:38;1.70;91.80
16635;DHT22;8431;52.458;9.998;2024-01-16T11:30:06;1.70;91.80
16635;DHT22;8431;52.458;9.998;2024-01-16T11:32:35;1.70;92.00
16635;DHT22;8431;52.458;9.998;2024-01-16T11:35:03;1.80;91.60
16635;DHT22;8431;52.458;9.998;2024-01-16T11:37:30;1.80;91.70
16635;DHT22;8431;52.458;9.998;2024-01-16T11:40:21;1.80;91.60
16635;DHT22;8431;52.458;9.998;2024-01-16T11:42:50;1.90;91.20
16635;DHT22;8431;52.458;9.998;2024-01-16T11:45:52;1.90;91.30
16635;DHT22;8431;52.458;9.998;2024-01-16T11:48:19;1.90;91.10
16635;DHT22;8431;52.458;9.998;2024-01-16T11:50:46;2.00;90.90
16635;DHT22;8431;52.458;9.998;2024-01-16T11:53:33;1.90;90.90
16635;DHT22;8431;52.458;9.998;2024-01-16T11:56:22;1.80;90.90
16635;DHT22;8431;52.458;9.998;2024-01-16T11:59:01;1.90;91.20
16635;DHT22;8431;52.458;9.998;2024-01-16T12:01:35;1.90;91.00
16635;DHT22;8431;52.458;9.998;2024-01-16T12:04:02;1.90;91.30
16635;DHT22;8431;52.458;9.998;2024-01-16T12:06:30;1.90;90.70
16635;DHT22;8431;52.458;9.998;2024-01-16T12:09:11;1.80;90.80
16635;DHT22;8431;52.458;9.998;2024-01-16T12:11:38;1.70;91.10
16635;DHT22;8431;52.458;9.998;2024-01-16T12:14:06;1.60;91.20
16635;DHT22;8431;52.458;9.998;2024-01-16T12:16:36;1.60;91.10
16635;DHT22;8431;52.458;9.998;2024-01-16T12:19:06;1.70;90.90
16635;DHT22;8431;52.458;9.998;2024-01-16T12:21:34;1.60;91.30
16635;DHT22;8431;52.458;9.998;2024-01-16T12:24:02;1.70;90.90
16635;DHT22;8431;52.458;9.998;2024-01-16T12:26:29;1.80;91.70
16635;DHT22;8431;52.458;9.998;2024-01-16T12:28:57;1.80;91.20
16635;DHT22;8431;52.458;9.998;2024-01-16T12:31:25;1.70;91.10
16635;DHT22;8431;52.458;9.998;2024-01-16T12:33:52;1.60;91.00
16635;DHT22;8431;52.458;9.998;2024-01-16T12:36:19;1.60;91.50
16635;DHT22;8431;52.458;9.998;2024-01-16T12:38:54;1.60;91.20
16635;DHT22;8431;52.458;9.998;2024-01-16T12:41:22;1.60;91.60
16635;DHT22;8431;52.458;9.998;2024-01-16T12:43:50;1.70;91.70
16635;DHT22;8431;52.458;9.998;2024-01-16T12:46:17;1.90;91.40
16635;DHT22;8431;52.458;9.998;2024-01-16T12:48:46;1.90;91.10
16635;DHT22;8431;52.458;9.998;2024-01-16T12:51:20;1.70;91.50
16635;DHT22;8431;52.458;9.998;2024-01-16T12:53:47;1.80;92.00
16635;DHT22;8431;52.458;9.998;2024-01-16T12:56:18;1.80;91.60
16635;DHT22;8431;52.458;9.998;2024-01-16T12:58:46;1.70;91.60
16635;DHT22;8431;52.458;9.998;2024-01-16T13:01:24;1.70;92.00
16635;DHT22;8431;52.458;9.998;2024-01-16T13:03:53;1.70;91.80
16635;DHT22;8431;52.458;9.998;2024-01-16T13:06:20;1.60;91.50
16635;DHT22;8431;52.458;9.998;2024-01-16T13:08:48;1.50;91.60
16635;DHT22;8431;52.458;9.998;2024-01-16T13:11:16;1.50;92.10
16635;DHT22;8431;52.458;9.998;2024-01-16T13:13:46;1.60;92.10
16635;DHT22;8431;52.458;9.998;2024-01-16T13:16:13;1.70;92.20
16635;DHT22;8431;52.458;9.998;2024-01-16T13:18:40;1.60;92.10
16635;DHT22;8431;52.458;9.998;2024-01-16T13:21:09;1.70;91.70
16635;DHT22;8431;52.458;9.998;2024-01-16T13:23:36;1.70;92.00
16635;DHT22;8431;52.458;9.998;2024-01-16T13:26:03;1.60;92.20
16635;DHT22;8431;52.458;9.998;2024-01-16T13:28:30;1.60;91.80
16635;DHT22;8431;52.458;9.998;2024-01-16T13:30:57;1.60;92.00
16635;DHT22;8431;52.458;9.998;2024-01-16T13:33:24;1.50;91.90
16635;DHT22;8431;52.458;9.998;2024-01-16T13:35:52;1.50;91.80
16635;DHT22;8431;52.458;9.998;2024-01-16T13:38:21;1.50;91.90
16635;DHT22;8431;52.458;9.998;2024-01-16T13:40:48;1.50;91.90
16635;DHT22;8431;52.458;9.998;2024-01-16T13:43:15;1.50;91.70
16635;DHT22;8431;52.458;9.998;2024-01-16T13:45:49;1.40;91.80
16635;DHT22;8431;52.458;9.998;2024-01-16T13:48:17;1.40;91.70
16635;DHT22;8431;52.458;9.998;2024-01-16T13:50:44;1.40;92.10
16635;DHT22;8431;52.458;9.998;2024-01-16T13:53:11;1.40;92.10
16635;DHT22;8431;52.458;9.998;2024-01-16T13:55:41;1.40;92.00
16635;DHT22;8431;52.458;9.998;2024-01-16T13:58:07;1.40;92.00
16635;DHT22;8431;52.458;9.998;2024-01-16T14:00:34;1.30;92.10
16635;DHT22;8431;52.458;9.998;2024-01-16T14:03:01;1.40;92.20
16635;DHT22;8431;52.458;9.998;2024-01-16T14:05:34;1.40;92.30
16635;DHT22;8431;52.458;9.998;2024-01-16T14:08:07;1.50;92.40
16635;DHT22;8431;52.458;9.998;2024-01-16T14:10:37;1.50;92.30
16635;DHT22;8431;52.458;9.998;2024-01-16T14:13:05;1.50;92.10
16635;DHT22;8431;52.458;9.998;2024-01-16T14:15:43;1.50;91.80
16635;DHT22;8431;52.458;9.998;2024-01-16T14:18:10;1.50;92.00
16635;DHT22;8431;52.458;9.998;2024-01-16T14:21:03;1.50;91.80
16635;DHT22;8431;52.458;9.998;2024-01-16T14:23:30;1.50;92.00
16635;DHT22;8431;52.458;9.998;2024-01-16T14:25:57;1.50;91.70
16635;DHT22;8431;52.458;9.998;2024-01-16T14:28:26;1.50;92.00
16635;DHT22;8431;52.458;9.998;2024-01-16T14:30:54;1.50;92.20
16635;DHT22;8431;52.458;9.998;2024-01-16T14:33:20;1.50;91.80
16635;DHT22;8431;52.458;9.998;2024-01-16T14:35:47;1.40;92.10
16635;DHT22;8431;52.458;9.998;2024-01-16T14:38:14;1.50;91.80
16635;DHT22;8431;52.458;9.998;2024-01-16T14:40:41;1.50;91.90
16635;DHT22;8431;52.458;9.998;2024-01-16T14:43:07;1.40;92.00
16635;DHT22;8431;52.458;9.998;2024-01-16T14:45:50;1.50;92.10
16635;DHT22;8431;52.458;9.998;2024-01-16T14:48:17;1.40;92.00
16635;DHT22;8431;52.458;9.998;2024-01-16T14:50:44;1.40;92.30
16635;DHT22;8431;52.458;9.998;2024-01-16T14:53:12;1.40;92.10
16635;DHT22;8431;52.458;9.998;2024-01-16T14:55:41;1.40;92.10
16635;DHT22;8431;52.458;9.998;2024-01-16T14:58:11;1.40;92.10
16635;DHT22;8431;52.458;9.998;2024-01-16T15:00:51;1.30;92.50
16635;DHT22;8431;52.458;9.998;2024-01-16T15:03:19;1.30;92.40
16635;DHT22;8431;52.458;9.998;2024-01-16T15:05:46;1.30;92.50
16635;DHT22;8431;52.458;9.998;2024-01-16T15:08:14;1.20;92.10
16635;DHT22;8431;52.458;9.998;2024-01-16T15:10:40;1.20;92.60
16635;DHT22;8431;52.458;9.998;2024-01-16T15:13:07;1.20;92.40
16635;DHT22;8431;52.458;9.998;2024-01-16T15:15:35;1.10;92.70
16635;DHT22;8431;52.458;9.998;2024-01-16T15:18:04;1.10;92.60
16635;DHT22;8431;52.458;9.998;2024-01-16T15:20:30;1.20;92.90
16635;DHT22;8431;52.458;9.998;2024-01-16T15:22:57;1.10;92.80
16635;DHT22;8431;52.458;9.998;2024-01-16T15:25:24;1.00;93.20
16635;DHT22;8431;52.458;9.998;2024-01-16T15:27:51;0.90;93.50
16635;DHT22;8431;52.458;9.998;2024-01-16T15:30:19;0.90;93.40
16635;DHT22;8431;52.458;9.998;2024-01-16T15:32:47;0.90;93.50
16635;DHT22;8431;52.458;9.998;2024-01-16T15:35:15;0.80;93.70
16635;DHT22;8431;52.458;9.998;2024-01-16T15:37:42;0.90;93.70
16635;DHT22;8431;52.458;9.998;2024-01-16T15:40:10;0.90;93.50
16635;DHT22;8431;52.458;9.998;2024-01-16T15:42:38;0.80;93.50
16635;DHT22;8431;52.458;9.998;2024-01-16T15:45:05;0.80;93.60
16635;DHT22;8431;52.458;9.998;2024-01-16T15:47:33;0.80;93.70
16635;DHT22;8431;52.458;9.998;2024-01-16T15:50:00;0.80;93.40
16635;DHT22;8431;52.458;9.998;2024-01-16T15:52:35;0.70;94.00
16635;DHT22;8431;52.458;9.998;2024-01-16T15:55:03;0.60;94.20
16635;DHT22;8431;52.458;9.998;2024-01-16T15:57:30;0.50;94.70
16635;DHT22;8431;52.458;9.998;2024-01-16T15:59:57;0.40;94.90
16635;DHT22;8431;52.458;9.998;2024-01-16T16:02:23;0.40;95.00
16635;DHT22;8431;52.458;9.998;2024-01-16T16:04:50;0.30;95.00